createdAt,value
2019-02-14T00:01:08.134Z,72.70
2019-02-14T00:03:35.370Z,72.95
2019-02-14T00:06:02.653Z,73.03
2019-02-14T00:08:29.911Z,73.28
2019-02-14T00:10:57.125Z,72.89
2019-02-14T00:13:24.337Z,72.82
2019-02-14T00:15:51.595Z,72.81
2019-02-14T00:18:18.787Z,72.77
2019-02-14T00:20:46.056Z,72.30
2019-02-14T00:23:13.265Z,72.38
2019-02-14T00:25:40.512Z,72.27
2019-02-14T00:28:07.727Z,72.27
2019-02-14T00:30:34.954Z,72.24
2019-02-14T00:33:02.203Z,71.88
2019-02-14T00:35:29.413Z,71.62
2019-02-14T00:37:56.667Z,71.42
2019-02-14T00:40:23.894Z,71.31
2019-02-14T00:42:51.175Z,71.27
2019-02-14T00:45:18.426Z,71.26
2019-02-14T00:47:45.657Z,70.98
2019-02-14T00:50:12.936Z,70.93
2019-02-14T00:52:40.141Z,70.88
2019-02-14T00:55:07.362Z,70.97
2019-02-14T00:57:34.611Z,70.78
2019-02-14T01:00:01.831Z,70.74
2019-02-14T01:02:29.046Z,70.68
2019-02-14T01:04:56.332Z,70.76
2019-02-14T01:07:23.620Z,70.81
2019-02-14T01:09:50.846Z,70.95
2019-02-14T01:12:18.110Z,70.63
2019-02-14T01:14:45.348Z,70.81
2019-02-14T01:17:12.579Z,70.77
2019-02-14T01:19:39.823Z,70.80
2019-02-14T01:22:07.045Z,70.68
2019-02-14T01:24:34.266Z,70.80
2019-02-14T01:27:01.519Z,70.92
2019-02-14T01:29:28.837Z,71.05
2019-02-14T01:31:56.056Z,71.12
2019-02-14T01:34:23.328Z,71.35
2019-02-14T01:36:50.540Z,71.72
2019-02-14T01:39:17.741Z,72.21
2019-02-14T01:41:45.048Z,72.10
2019-02-14T01:44:12.284Z,72.37
2019-02-14T01:46:39.482Z,72.19
2019-02-14T01:49:06.741Z,72.10
2019-02-14T01:51:33.955Z,72.76
2019-02-14T01:54:01.159Z,72.94
2019-02-14T01:56:28.489Z,72.28
2019-02-14T01:58:55.720Z,72.57
2019-02-14T02:01:22.976Z,72.21
2019-02-14T02:03:50.198Z,72.32
2019-02-14T02:06:17.494Z,72.32
2019-02-14T02:08:44.803Z,71.98
2019-02-14T02:11:15.071Z,71.85
2019-02-14T02:13:42.279Z,71.64
2019-02-14T02:16:09.535Z,71.82
2019-02-14T02:18:38.670Z,71.87
2019-02-14T02:21:10.496Z,71.88
2019-02-14T02:23:40.143Z,71.72
2019-02-14T02:26:11.973Z,71.57
2019-02-14T02:28:39.192Z,71.41
2019-02-14T02:31:06.982Z,71.29
2019-02-14T02:33:34.192Z,71.25
2019-02-14T02:36:01.435Z,71.21
2019-02-14T02:38:28.685Z,71.42
2019-02-14T02:40:55.905Z,71.66
2019-02-14T02:43:23.109Z,71.69
2019-02-14T02:45:50.368Z,71.75
2019-02-14T02:48:17.645Z,71.60
2019-02-14T02:50:44.863Z,71.61
2019-02-14T02:53:12.092Z,71.63
2019-02-14T02:55:39.348Z,71.53
2019-02-14T02:58:06.555Z,71.38
2019-02-14T03:00:33.823Z,71.27
2019-02-14T03:03:01.095Z,71.26
2019-02-14T03:05:28.322Z,70.80
2019-02-14T03:07:55.601Z,70.97
2019-02-14T03:10:22.866Z,70.93
2019-02-14T03:12:50.075Z,70.71
2019-02-14T03:15:17.283Z,70.85
2019-02-14T03:17:44.545Z,70.82
2019-02-14T03:20:11.890Z,70.63
2019-02-14T03:22:39.130Z,70.44
2019-02-14T03:25:11.983Z,70.18
2019-02-14T03:27:39.218Z,70.01
2019-02-14T03:30:06.982Z,70.10
2019-02-14T03:32:35.234Z,69.97
2019-02-14T03:35:02.597Z,69.90
2019-02-14T03:37:29.829Z,69.79
2019-02-14T03:39:57.025Z,69.66
2019-02-14T03:42:24.289Z,69.39
2019-02-14T03:44:51.502Z,69.14
2019-02-14T03:47:18.785Z,69.26
2019-02-14T03:49:46.073Z,69.31
2019-02-14T03:52:13.282Z,68.94
2019-02-14T03:54:40.487Z,69.32
2019-02-14T03:57:07.772Z,69.25
2019-02-14T03:59:34.947Z,69.34
2019-02-14T04:02:02.200Z,69.36
2019-02-14T04:04:29.466Z,69.27
2019-02-14T04:06:56.708Z,69.27
2019-02-14T04:09:23.959Z,69.28
2019-02-14T04:11:51.212Z,69.24
2019-02-14T04:14:18.476Z,69.04
2019-02-14T04:16:45.720Z,68.95
2019-02-14T04:19:12.924Z,68.99
2019-02-14T04:21:40.164Z,68.61
2019-02-14T04:24:07.395Z,68.70
2019-02-14T04:26:34.661Z,68.12
2019-02-14T04:29:01.886Z,69.24
2019-02-14T04:31:29.115Z,69.28
2019-02-14T04:33:56.409Z,69.30
2019-02-14T04:36:23.643Z,69.36
2019-02-14T04:38:50.854Z,69.37
2019-02-14T04:41:18.081Z,69.40
2019-02-14T04:43:45.307Z,69.42
2019-02-14T04:46:12.535Z,69.47
2019-02-14T04:48:39.780Z,69.40
2019-02-14T04:51:06.987Z,69.51
2019-02-14T04:53:34.197Z,69.45
2019-02-14T04:56:01.471Z,69.49
2019-02-14T04:58:28.669Z,69.48
2019-02-14T05:00:55.885Z,69.57
2019-02-14T05:03:23.127Z,69.65
2019-02-14T05:05:50.344Z,69.95
2019-02-14T05:08:17.624Z,70.14
2019-02-14T05:10:44.900Z,70.30
2019-02-14T05:13:12.130Z,70.24
2019-02-14T05:15:39.360Z,70.70
2019-02-14T05:18:06.608Z,70.69
2019-02-14T05:20:33.838Z,70.86
2019-02-14T05:23:01.106Z,70.94
2019-02-14T05:25:28.334Z,70.99
2019-02-14T05:27:55.585Z,70.86
2019-02-14T05:30:22.824Z,71.02
2019-02-14T05:32:50.098Z,70.99
2019-02-14T05:35:17.365Z,70.89
2019-02-14T05:37:44.567Z,70.94
2019-02-14T05:40:11.894Z,70.86
2019-02-14T05:42:39.162Z,70.85
2019-02-14T05:45:06.951Z,70.83
2019-02-14T05:47:34.142Z,70.89
2019-02-14T05:50:01.418Z,71.07
2019-02-14T05:52:28.627Z,71.05
2019-02-14T05:54:55.848Z,71.14
2019-02-14T05:57:23.107Z,71.08
2019-02-14T05:59:50.323Z,70.97
2019-02-14T06:02:18.652Z,70.88
2019-02-14T06:04:45.893Z,70.78
2019-02-14T06:07:13.122Z,70.68
2019-02-14T06:09:40.361Z,69.80
2019-02-14T06:12:07.571Z,70.43
2019-02-14T06:14:34.843Z,70.41
2019-02-14T06:17:02.152Z,70.59
2019-02-14T06:19:29.369Z,70.79
2019-02-14T06:21:56.612Z,71.15
2019-02-14T06:24:23.826Z,71.93
2019-02-14T06:26:51.064Z,71.89
2019-02-14T06:29:18.304Z,71.53
2019-02-14T06:31:45.553Z,71.27
2019-02-14T06:34:12.826Z,71.35
2019-02-14T06:36:40.047Z,71.30
2019-02-14T06:39:07.300Z,71.17
2019-02-14T06:41:34.504Z,71.27
2019-02-14T06:44:01.716Z,71.37
2019-02-14T06:46:29.364Z,71.40
2019-02-14T06:48:56.572Z,71.36
2019-02-14T06:51:23.834Z,71.45
2019-02-14T06:53:51.084Z,71.62
2019-02-14T06:56:18.352Z,72.04
2019-02-14T06:58:45.568Z,72.02
2019-02-14T07:01:12.768Z,72.52
2019-02-14T07:03:40.053Z,72.56
2019-02-14T07:06:07.271Z,72.79
2019-02-14T07:08:34.557Z,72.92
2019-02-14T07:11:01.822Z,73.17
2019-02-14T07:13:29.049Z,72.99
2019-02-14T07:15:56.294Z,72.91
2019-02-14T07:18:23.525Z,72.99
2019-02-14T07:20:50.738Z,73.29
2019-02-14T07:23:18.009Z,73.40
2019-02-14T07:25:45.228Z,73.64
2019-02-14T07:28:12.446Z,73.76
2019-02-14T07:30:39.729Z,73.81
2019-02-14T07:33:06.944Z,74.08
2019-02-14T07:35:34.166Z,74.08
2019-02-14T07:38:01.410Z,74.19
2019-02-14T07:40:29.763Z,75.07
2019-02-14T07:42:57.119Z,74.90
2019-02-14T07:45:24.334Z,75.16
2019-02-14T07:47:51.573Z,74.84
2019-02-14T07:50:18.804Z,75.70
2019-02-14T07:52:46.060Z,75.39
2019-02-14T07:55:13.428Z,74.57
2019-02-14T07:57:40.783Z,74.19
2019-02-14T08:00:10.651Z,74.05
2019-02-14T08:02:37.913Z,74.04
2019-02-14T08:05:05.699Z,74.02
2019-02-14T08:07:35.999Z,73.97
2019-02-14T08:10:02.123Z,73.39
2019-02-14T08:12:29.343Z,73.94
2019-02-14T08:14:56.684Z,73.96
2019-02-14T08:17:23.900Z,73.74
2019-02-14T08:19:51.137Z,73.81
2019-02-14T08:22:18.390Z,73.60
2019-02-14T08:24:46.100Z,73.52
2019-02-14T08:27:13.310Z,73.69
2019-02-14T08:29:40.584Z,74.91
2019-02-14T08:32:07.794Z,74.22
2019-02-14T08:34:34.995Z,74.39
2019-02-14T08:37:02.233Z,74.29
2019-02-14T08:39:29.449Z,74.44
2019-02-14T08:41:56.681Z,74.19
2019-02-14T08:44:23.916Z,73.62
2019-02-14T08:46:51.133Z,73.59
2019-02-14T08:49:18.378Z,74.18
2019-02-14T08:51:45.606Z,73.98
2019-02-14T08:54:12.821Z,73.40
2019-02-14T08:56:40.084Z,73.13
2019-02-14T08:59:07.302Z,72.77
2019-02-14T09:01:34.528Z,72.49
2019-02-14T09:04:01.804Z,72.22
2019-02-14T09:06:29.021Z,72.05
2019-02-14T09:08:56.298Z,71.79
2019-02-14T09:11:23.542Z,71.53
2019-02-14T09:13:50.785Z,71.05
2019-02-14T09:16:18.064Z,70.98
2019-02-14T09:18:45.287Z,70.71
2019-02-14T09:21:12.551Z,70.70
2019-02-14T09:23:39.814Z,70.61
2019-02-14T09:26:07.087Z,70.60
2019-02-14T09:28:34.319Z,70.60
2019-02-14T09:31:01.602Z,70.47
2019-02-14T09:33:28.833Z,70.42
2019-02-14T09:35:56.046Z,70.19
2019-02-14T09:38:23.326Z,69.98
2019-02-14T09:40:50.539Z,69.87
2019-02-14T09:43:17.770Z,69.48
2019-02-14T09:45:45.033Z,69.69
2019-02-14T09:48:12.267Z,69.49
2019-02-14T09:50:39.497Z,69.43
2019-02-14T09:53:06.762Z,69.25
2019-02-14T09:55:33.960Z,69.28
2019-02-14T09:58:01.173Z,68.79
2019-02-14T10:00:28.529Z,68.78
2019-02-14T10:02:55.756Z,68.96
2019-02-14T10:05:22.967Z,68.94
2019-02-14T10:07:50.202Z,68.62
2019-02-14T10:10:17.448Z,68.86
2019-02-14T10:12:44.702Z,68.48
2019-02-14T10:15:12.057Z,68.37
2019-02-14T10:17:39.277Z,67.69
2019-02-14T10:20:08.389Z,67.58
2019-02-14T10:22:35.677Z,67.25
2019-02-14T10:25:03.098Z,67.07
2019-02-14T10:27:30.373Z,66.86
2019-02-14T10:29:57.612Z,66.98
2019-02-14T10:32:24.834Z,66.69
2019-02-14T10:34:52.056Z,66.34
2019-02-14T10:37:19.384Z,66.70
2019-02-14T10:39:46.651Z,66.67
2019-02-14T10:42:13.860Z,67.07
2019-02-14T10:44:41.120Z,67.10
2019-02-14T10:47:08.412Z,66.97
2019-02-14T10:49:35.683Z,67.04
2019-02-14T10:52:02.922Z,67.00
2019-02-14T10:54:30.127Z,66.97
2019-02-14T10:56:57.371Z,66.47
2019-02-14T10:59:24.643Z,66.43
2019-02-14T11:01:51.949Z,66.53
2019-02-14T11:04:19.183Z,66.25
2019-02-14T11:06:46.461Z,65.67
2019-02-14T11:09:13.768Z,65.46
2019-02-14T11:11:41.021Z,65.46
2019-02-14T11:14:08.283Z,65.79
2019-02-14T11:16:35.492Z,65.52
2019-02-14T11:19:02.780Z,65.39
2019-02-14T11:21:30.032Z,65.51
2019-02-14T11:23:57.255Z,65.60
2019-02-14T11:26:24.529Z,65.49
2019-02-14T11:28:51.779Z,65.17
2019-02-14T11:31:20.833Z,65.38
2019-02-14T11:33:48.120Z,64.62
2019-02-14T11:36:15.355Z,64.11
2019-02-14T11:38:42.616Z,64.11
2019-02-14T11:41:09.915Z,64.20
2019-02-14T11:43:37.152Z,64.20
2019-02-14T11:46:04.384Z,63.97
2019-02-14T11:48:31.647Z,63.73
2019-02-14T11:50:58.874Z,63.89
2019-02-14T11:53:26.229Z,64.00
2019-02-14T11:55:53.632Z,64.00
2019-02-14T11:58:20.869Z,64.33
2019-02-14T12:00:48.130Z,64.34
2019-02-14T12:03:15.368Z,63.99
2019-02-14T12:05:42.637Z,63.99
2019-02-14T12:08:09.922Z,64.19
2019-02-14T12:10:37.203Z,63.47
2019-02-14T12:13:04.457Z,63.50
2019-02-14T12:15:31.737Z,63.50
2019-02-14T12:17:58.962Z,63.23
2019-02-14T12:20:26.217Z,62.90
2019-02-14T12:22:53.507Z,62.86
2019-02-14T12:25:20.915Z,63.30
2019-02-14T12:27:48.122Z,63.15
2019-02-14T12:30:15.395Z,62.95
2019-02-14T12:32:42.622Z,62.42
2019-02-14T12:35:09.886Z,62.42
2019-02-14T12:37:37.113Z,62.58
2019-02-14T12:40:05.080Z,62.79
2019-02-14T12:42:32.351Z,62.49
2019-02-14T12:44:59.573Z,61.88
2019-02-14T12:47:26.793Z,62.22
2019-02-14T12:49:54.045Z,62.11
2019-02-14T12:52:21.319Z,62.11
2019-02-14T12:54:48.626Z,61.97
2019-02-14T12:57:15.919Z,61.32
2019-02-14T12:59:43.116Z,61.49
2019-02-14T13:02:10.443Z,60.74
2019-02-14T13:04:37.715Z,60.63
2019-02-14T13:07:04.953Z,60.92
2019-02-14T13:09:32.227Z,61.46
2019-02-14T13:11:59.512Z,60.73
2019-02-14T13:14:26.744Z,59.83
2019-02-14T13:16:54.020Z,59.83
2019-02-14T13:19:21.258Z,60.40
2019-02-14T13:21:48.479Z,60.76
2019-02-14T13:24:15.748Z,59.76
2019-02-14T13:26:43.003Z,60.26
2019-02-14T13:29:10.287Z,60.26
2019-02-14T13:31:37.498Z,60.40
2019-02-14T13:34:04.722Z,60.69
2019-02-14T13:36:31.997Z,61.16
2019-02-14T13:38:59.278Z,61.16
2019-02-14T13:41:31.191Z,60.96
2019-02-14T13:43:55.685Z,60.48
2019-02-14T13:46:23.855Z,60.13
2019-02-14T13:48:51.191Z,60.04
2019-02-14T13:51:18.454Z,60.03
2019-02-14T13:53:45.661Z,59.41
2019-02-14T13:56:12.952Z,58.60
2019-02-14T13:58:40.159Z,58.42
2019-02-14T14:01:07.436Z,58.44
2019-02-14T14:03:34.715Z,57.37
2019-02-14T14:06:01.963Z,57.37
2019-02-14T14:08:29.205Z,57.59
2019-02-14T14:10:56.460Z,57.18
2019-02-14T14:13:23.670Z,57.48
2019-02-14T14:15:50.898Z,57.32
2019-02-14T14:18:18.172Z,57.43
2019-02-14T14:20:45.376Z,57.50
2019-02-14T14:23:12.639Z,57.12
2019-02-14T14:25:39.878Z,57.29
2019-02-14T14:28:07.112Z,57.29
2019-02-14T14:30:34.439Z,57.48
2019-02-14T14:33:01.696Z,56.77
2019-02-14T14:35:28.941Z,56.55
2019-02-14T14:37:56.177Z,55.69
2019-02-14T14:40:23.420Z,55.61
2019-02-14T14:43:13.089Z,55.48
2019-02-14T14:46:02.495Z,54.90
2019-02-14T14:48:35.452Z,54.09
2019-02-14T14:51:02.669Z,54.47
2019-02-14T14:53:29.892Z,54.30
2019-02-14T14:55:57.149Z,54.39
2019-02-14T14:58:24.393Z,54.67
2019-02-14T15:00:51.621Z,54.95
2019-02-14T15:03:18.862Z,54.97
2019-02-14T15:05:46.078Z,55.17
2019-02-14T15:08:13.317Z,55.58
2019-02-14T15:10:40.606Z,55.64
2019-02-14T15:13:07.836Z,55.16
2019-02-14T15:15:35.050Z,55.07
2019-02-14T15:18:02.320Z,54.83
2019-02-14T15:20:29.574Z,55.12
2019-02-14T15:22:56.813Z,54.73
2019-02-14T15:25:24.084Z,54.25
2019-02-14T15:27:51.343Z,54.28
2019-02-14T15:30:18.628Z,54.61
2019-02-14T15:32:45.970Z,55.00
2019-02-14T15:35:13.200Z,54.91
2019-02-14T15:37:41.980Z,55.12
2019-02-14T15:40:10.076Z,55.65
2019-02-14T15:42:37.462Z,55.65
2019-02-14T15:45:05.033Z,55.10
2019-02-14T15:47:32.268Z,54.78
2019-02-14T15:49:59.548Z,54.59
2019-02-14T15:52:27.548Z,54.46
2019-02-14T15:54:57.604Z,54.48
2019-02-14T15:57:25.057Z,54.47
2019-02-14T15:59:52.317Z,54.95
2019-02-14T16:02:19.529Z,55.20
2019-02-14T16:04:46.761Z,55.59
2019-02-14T16:07:15.353Z,55.85
2019-02-14T16:09:43.170Z,56.12
2019-02-14T16:12:10.432Z,56.35
2019-02-14T16:14:37.769Z,56.55
2019-02-14T16:17:06.764Z,56.73
2019-02-14T16:19:34.503Z,56.92
2019-02-14T16:22:03.279Z,56.97
2019-02-14T16:24:30.555Z,56.97
2019-02-14T16:26:59.172Z,57.07
2019-02-14T16:29:27.459Z,57.12
2019-02-14T16:31:54.761Z,57.11
2019-02-14T16:34:22.063Z,57.02
2019-02-14T16:36:49.293Z,57.02
2019-02-14T16:39:16.619Z,57.00
2019-02-14T16:41:43.891Z,57.11
2019-02-14T16:44:11.154Z,57.23
2019-02-14T16:46:38.392Z,57.41
2019-02-14T16:49:05.679Z,57.80
2019-02-14T16:51:32.913Z,58.02
2019-02-14T16:54:00.163Z,58.14
2019-02-14T16:56:27.430Z,58.25
2019-02-14T16:58:54.646Z,58.36
2019-02-14T17:01:21.864Z,58.42
2019-02-14T17:03:49.115Z,58.61
2019-02-14T17:06:16.391Z,58.60
2019-02-14T17:08:43.633Z,58.60
2019-02-14T17:11:10.906Z,58.92
2019-02-14T17:13:38.159Z,59.27
2019-02-14T17:16:05.488Z,59.27
2019-02-14T17:18:32.748Z,59.64
2019-02-14T17:21:00.040Z,59.82
2019-02-14T17:23:27.237Z,59.92
2019-02-14T17:25:54.466Z,59.94
2019-02-14T17:28:26.893Z,60.08
2019-02-14T17:30:54.121Z,59.92
2019-02-14T17:33:21.385Z,59.99
2019-02-14T17:35:48.652Z,59.99
2019-02-14T17:38:15.934Z,59.69
2019-02-14T17:40:46.045Z,59.60
2019-02-14T17:43:12.295Z,59.60
2019-02-14T17:45:39.573Z,59.39
2019-02-14T17:48:06.785Z,59.33
2019-02-14T17:50:34.068Z,59.33
2019-02-14T17:53:01.298Z,59.34
2019-02-14T17:55:28.528Z,59.18
2019-02-14T17:57:56.301Z,59.09
2019-02-14T18:00:23.540Z,59.20
2019-02-14T18:02:50.794Z,59.19
2019-02-14T18:05:18.021Z,59.27
2019-02-14T18:07:45.288Z,59.27
2019-02-14T18:10:12.535Z,59.21
2019-02-14T18:12:39.757Z,59.20
2019-02-14T18:15:09.144Z,59.23
2019-02-14T18:17:36.371Z,59.08
2019-02-14T18:20:04.180Z,59.43
2019-02-14T18:22:31.454Z,59.59
2019-02-14T18:24:58.681Z,59.71
2019-02-14T18:27:25.947Z,59.64
2019-02-14T18:29:53.191Z,59.92
2019-02-14T18:32:20.405Z,59.91
2019-02-14T18:34:47.648Z,59.83
2019-02-14T18:37:14.883Z,60.01
2019-02-14T18:39:42.123Z,60.06
2019-02-14T18:42:09.390Z,60.11
2019-02-14T18:44:36.621Z,60.13
2019-02-14T18:47:03.943Z,60.09
2019-02-14T18:49:31.185Z,60.19
2019-02-14T18:51:58.479Z,60.14
2019-02-14T18:54:25.705Z,60.22
2019-02-14T18:56:52.939Z,60.27
2019-02-14T18:59:21.514Z,60.28
2019-02-14T19:01:48.727Z,60.51
2019-02-14T19:04:15.959Z,60.66
2019-02-14T19:06:43.220Z,60.77
2019-02-14T19:09:11.043Z,60.71
2019-02-14T19:11:38.290Z,60.77
2019-02-14T19:14:05.614Z,60.94
2019-02-14T19:16:32.872Z,60.99
2019-02-14T19:19:00.484Z,61.19
2019-02-14T19:21:27.748Z,61.15
2019-02-14T19:23:54.948Z,61.05
2019-02-14T19:26:22.148Z,61.15
2019-02-14T19:28:49.393Z,61.26
2019-02-14T19:31:16.601Z,61.32
2019-02-14T19:33:43.912Z,61.31
2019-02-14T19:36:11.194Z,61.11
2019-02-14T19:38:38.432Z,61.21
2019-02-14T19:41:05.686Z,61.61
2019-02-14T19:43:32.893Z,61.70
2019-02-14T19:46:00.209Z,61.71
2019-02-14T19:48:27.425Z,61.64
2019-02-14T19:50:54.663Z,61.70
2019-02-14T19:53:21.945Z,61.82
2019-02-14T19:55:49.180Z,61.90
2019-02-14T19:58:16.403Z,62.19
2019-02-14T20:00:43.674Z,62.11
2019-02-14T20:03:10.906Z,62.01
2019-02-14T20:05:38.188Z,62.20
2019-02-14T20:08:05.909Z,62.26
2019-02-14T20:10:33.159Z,62.37
2019-02-14T20:13:00.461Z,62.42
2019-02-14T20:15:36.486Z,62.33
2019-02-14T20:18:01.694Z,62.51
2019-02-14T20:20:34.787Z,62.66
2019-02-14T20:23:03.536Z,62.70
2019-02-14T20:25:30.745Z,62.73
2019-02-14T20:27:58.032Z,62.76
2019-02-14T20:30:25.729Z,62.83
2019-02-14T20:32:53.092Z,62.85
2019-02-14T20:35:22.554Z,62.92
2019-02-14T20:37:49.801Z,63.06
2019-02-14T20:40:17.066Z,63.15
2019-02-14T20:42:44.345Z,69.78
2019-02-14T20:45:12.886Z,66.26
2019-02-14T20:47:40.093Z,64.49
2019-02-14T20:50:09.228Z,63.60
2019-02-14T20:52:36.465Z,62.97
2019-02-14T20:55:04.170Z,62.98
2019-02-14T20:57:31.382Z,62.86
2019-02-14T20:59:58.710Z,62.80
2019-02-14T21:02:25.952Z,62.73
2019-02-14T21:04:53.451Z,62.67
2019-02-14T21:07:20.727Z,62.74
2019-02-14T21:09:47.971Z,62.70
2019-02-14T21:12:15.217Z,62.78
2019-02-14T21:14:42.472Z,62.85
2019-02-14T21:17:09.707Z,62.83
2019-02-14T21:19:37.038Z,62.72
2019-02-14T21:22:04.258Z,62.91
2019-02-14T21:24:31.545Z,62.93
2019-02-14T21:26:58.797Z,62.86
2019-02-14T21:29:26.060Z,62.85
2019-02-14T21:31:53.346Z,63.13
2019-02-14T21:34:20.632Z,63.16
2019-02-14T21:36:47.851Z,63.07
2019-02-14T21:39:15.108Z,63.27
2019-02-14T21:41:42.474Z,63.29
2019-02-14T21:44:09.694Z,63.38
2019-02-14T21:46:37.051Z,63.45
2019-02-14T21:49:04.338Z,63.38
2019-02-14T21:51:31.550Z,63.39
2019-02-14T21:53:58.764Z,63.42
2019-02-14T21:56:26.040Z,63.50
2019-02-14T21:58:53.291Z,63.59
2019-02-14T22:01:24.317Z,63.58
2019-02-14T22:03:51.661Z,63.58
2019-02-14T22:06:18.875Z,63.52
2019-02-14T22:08:46.165Z,63.69
2019-02-14T22:11:13.380Z,63.75
2019-02-14T22:13:40.663Z,63.86
2019-02-14T22:16:08.045Z,64.02
2019-02-14T22:18:35.259Z,64.26
2019-02-14T22:21:02.506Z,64.33
2019-02-14T22:23:29.775Z,64.42
2019-02-14T22:25:57.086Z,64.49
2019-02-14T22:28:24.356Z,64.54
2019-02-14T22:30:51.619Z,64.60
2019-02-14T22:33:18.842Z,64.62
2019-02-14T22:35:46.077Z,64.58
2019-02-14T22:38:13.295Z,64.62
2019-02-14T22:40:40.547Z,64.62
2019-02-14T22:43:07.764Z,64.68
2019-02-14T22:45:35.016Z,64.70
2019-02-14T22:48:02.228Z,64.73
2019-02-14T22:50:29.461Z,64.73
2019-02-14T22:52:56.704Z,64.81
2019-02-14T22:55:23.915Z,64.82
2019-02-14T22:57:51.480Z,64.93
2019-02-14T23:00:38.889Z,64.87
2019-02-14T23:03:06.408Z,64.92
2019-02-14T23:05:33.666Z,64.90
2019-02-14T23:08:00.869Z,64.93
2019-02-14T23:10:28.122Z,64.89
2019-02-14T23:12:56.258Z,64.85
2019-02-14T23:15:23.888Z,64.93
2019-02-14T23:17:51.219Z,64.89
2019-02-14T23:20:18.433Z,64.87
2019-02-14T23:22:45.696Z,64.92
2019-02-14T23:25:12.927Z,64.82
2019-02-14T23:27:40.204Z,64.91
2019-02-14T23:30:07.495Z,64.96
2019-02-14T23:32:34.817Z,64.97
2019-02-14T23:35:02.090Z,64.96
2019-02-14T23:37:29.611Z,64.85
2019-02-14T23:39:56.848Z,64.70
2019-02-14T23:42:24.066Z,64.81
2019-02-14T23:44:51.336Z,64.75
2019-02-14T23:47:18.576Z,64.61
2019-02-14T23:49:45.815Z,64.79
2019-02-14T23:52:13.083Z,64.67
2019-02-14T23:54:40.330Z,64.68
2019-02-14T23:57:07.576Z,64.66
2019-02-14T23:59:34.841Z,64.64
